Wielsbeke, Belgium
Current Conditions -  °F | °C
As of 1:30 AM on Monday 26 Jan 2015 (Local Time) from LFQQ Reporting Station
Haze Haze  
Wind Chill: 36°   Ceiling: 500
Heat Index: 41°   Visibility: 1.8mi
Dew Point: 39°   Wind: 7mph
Humidity: 93%   Direction: 200°SSW
Pressure: 30.3"   Gusts: NA
Location:  50.9°N, 3.37°E
Report Text: LFQQ 260030Z AUTO 20006KT 2900 BR OVC005 05/04 Q1026
Loading
Personal Weather Stations






























Interactive Weather Map New forecast layout! Learn more

10-Day Weather Forecast

Advertisements
Track Severe Weather on mobile